createdAt,value
2018-09-25T00:02:13.400Z,10.60
2018-09-25T00:04:47.717Z,23.98
2018-09-25T00:07:22.158Z,13.85
2018-09-25T00:09:56.599Z,16.62
2018-09-25T00:12:30.801Z,14.00
2018-09-25T00:15:05.237Z,15.55
2018-09-25T00:17:39.676Z,15.65
2018-09-25T00:20:14.115Z,17.95
2018-09-25T00:22:48.555Z,10.70
2018-09-25T00:25:22.993Z,15.23
2018-09-25T00:27:57.652Z,12.75
2018-09-25T00:30:32.175Z,20.77
2018-09-25T00:33:06.914Z,11.88
2018-09-25T00:35:41.352Z,14.70
2018-09-25T00:38:16.033Z,20.17
2018-09-25T00:40:50.783Z,16.45
2018-09-25T00:43:25.272Z,12.40
2018-09-25T00:45:59.834Z,15.40
2018-09-25T00:48:34.392Z,11.15
2018-09-25T00:51:08.949Z,11.75
2018-09-25T00:53:43.506Z,12.68
2018-09-25T00:56:18.309Z,16.55
2018-09-25T00:58:52.773Z,16.15
2018-09-25T01:01:27.545Z,26.00
2018-09-25T01:04:02.218Z,13.53
2018-09-25T01:06:36.784Z,11.43
2018-09-25T01:09:13.023Z,13.93
2018-09-25T01:11:47.465Z,19.73
2018-09-25T01:14:21.902Z,34.53
2018-09-25T01:16:56.345Z,18.62
2018-09-25T01:19:30.787Z,20.23
2018-09-25T01:22:06.180Z,11.35
2018-09-25T01:24:40.744Z,15.15
2018-09-25T01:27:15.181Z,19.77
2018-09-25T01:29:49.860Z,24.18
2018-09-25T01:32:24.659Z,17.82
2018-09-25T01:40:31.983Z,23.20
2018-09-25T01:43:06.658Z,14.58
2018-09-25T01:45:41.097Z,19.62
2018-09-25T01:48:15.536Z,22.05
2018-09-25T01:50:50.334Z,20.82
2018-09-25T01:53:25.018Z,14.83
2018-09-25T01:55:59.335Z,11.55
2018-09-25T01:58:34.159Z,14.73
2018-09-25T02:01:09.659Z,17.80
2018-09-25T02:03:44.213Z,19.35
2018-09-25T02:06:18.892Z,13.85
2018-09-25T02:08:53.457Z,12.50
2018-09-25T02:11:27.896Z,16.90
2018-09-25T02:14:02.694Z,11.18
2018-09-25T02:16:37.249Z,19.27
2018-09-25T02:19:12.052Z,21.85
2018-09-25T02:21:46.609Z,20.12
2018-09-25T02:24:21.053Z,15.43
2018-09-25T02:26:55.610Z,31.37
2018-09-25T02:29:30.051Z,26.37
2018-09-25T02:32:04.369Z,20.50
2018-09-25T02:34:38.926Z,15.28
2018-09-25T02:37:13.367Z,18.00
2018-09-25T02:39:47.927Z,19.00
2018-09-25T02:42:22.486Z,21.25
2018-09-25T02:44:57.101Z,14.60
2018-09-25T02:47:31.749Z,19.65
2018-09-25T02:50:06.047Z,16.70
2018-09-25T02:52:40.606Z,18.02
2018-09-25T02:55:15.290Z,17.15
2018-09-25T02:57:49.604Z,16.37
2018-09-25T03:00:23.922Z,17.80
2018-09-25T03:02:58.242Z,15.58
2018-09-25T03:05:32.800Z,20.43
2018-09-25T03:08:07.120Z,16.35
2018-09-25T03:10:41.682Z,18.45
2018-09-25T03:13:16.130Z,22.73
2018-09-25T03:15:50.558Z,13.18
2018-09-25T03:18:25.298Z,20.88
2018-09-25T03:20:59.807Z,17.62
2018-09-25T03:23:34.241Z,16.77
2018-09-25T03:26:08.921Z,19.10
2018-09-25T03:28:43.238Z,25.20
2018-09-25T03:31:17.916Z,17.23
2018-09-25T03:33:52.476Z,24.72
2018-09-25T03:36:26.918Z,16.60
2018-09-25T03:39:01.597Z,26.15
2018-09-25T03:41:36.035Z,20.57
2018-09-25T03:44:10.595Z,21.35
2018-09-25T03:46:45.160Z,21.10
2018-09-25T03:49:19.836Z,18.10
2018-09-25T03:51:54.515Z,15.25
2018-09-25T03:54:28.980Z,19.95
2018-09-25T03:57:03.634Z,14.87
2018-09-25T03:59:38.357Z,15.20
2018-09-25T04:02:12.754Z,21.87
2018-09-25T04:04:47.191Z,15.90
2018-09-25T04:07:21.992Z,19.17
2018-09-25T04:09:56.383Z,19.98
2018-09-25T04:12:30.988Z,20.60
2018-09-25T04:15:05.635Z,18.35
2018-09-25T04:17:40.710Z,16.90
2018-09-25T04:20:15.160Z,16.07
2018-09-25T04:22:49.589Z,21.93
2018-09-25T04:25:23.906Z,15.98
2018-09-25T04:27:58.468Z,13.65
2018-09-25T04:30:32.789Z,14.25
2018-09-25T04:33:07.347Z,20.25
2018-09-25T04:35:41.792Z,15.08
2018-09-25T04:38:16.464Z,16.93
2018-09-25T04:40:51.177Z,19.48
2018-09-25T04:43:25.704Z,15.35
2018-09-25T04:46:00.506Z,19.42
2018-09-25T04:48:35.062Z,15.95
2018-09-25T04:51:09.744Z,17.12
2018-09-25T04:53:44.184Z,12.50
2018-09-25T04:56:18.624Z,19.30
2018-09-25T04:58:53.420Z,15.28
2018-09-25T05:01:27.741Z,18.30
2018-09-25T05:04:02.179Z,17.05
2018-09-25T05:06:36.653Z,14.60
2018-09-25T05:09:13.090Z,14.90
2018-09-25T05:11:47.421Z,13.10
2018-09-25T05:14:21.978Z,12.73
2018-09-25T05:16:56.415Z,12.35
2018-09-25T05:19:30.980Z,12.58
2018-09-25T05:22:05.658Z,17.50
2018-09-25T05:24:40.505Z,15.68
2018-09-25T05:27:15.016Z,18.42
2018-09-25T05:29:49.578Z,18.05
2018-09-25T05:32:24.016Z,17.00
2018-09-25T05:40:32.185Z,19.65
2018-09-25T05:43:06.977Z,22.73
2018-09-25T05:45:41.787Z,22.90
2018-09-25T05:48:16.395Z,25.20
2018-09-25T05:50:50.894Z,26.97
2018-09-25T05:53:25.329Z,24.70
2018-09-25T05:55:59.771Z,39.67
2018-09-25T05:58:34.091Z,32.53
2018-09-25T06:01:08.671Z,24.67
2018-09-25T06:03:43.089Z,34.58
2018-09-25T06:06:17.530Z,34.43
2018-09-25T06:08:52.091Z,48.35
2018-09-25T06:11:26.529Z,69.40
2018-09-25T06:14:00.967Z,154.70
2018-09-25T06:16:35.646Z,100.80
2018-09-25T06:19:10.089Z,62.30
2018-09-25T06:21:44.647Z,57.73
2018-09-25T06:24:19.087Z,42.48
2018-09-25T06:26:53.684Z,33.13
2018-09-25T06:29:28.688Z,23.30
2018-09-25T06:32:06.484Z,10.72
2018-09-25T06:34:41.155Z,17.10
2018-09-25T06:37:16.019Z,10.55
2018-09-25T06:39:50.761Z,8.15
2018-09-25T06:42:25.535Z,8.73
2018-09-25T06:45:00.123Z,6.62
2018-09-25T06:47:34.441Z,12.98
2018-09-25T06:50:08.762Z,5.85
2018-09-25T06:52:43.200Z,10.45
2018-09-25T06:55:17.801Z,5.53
2018-09-25T06:57:52.198Z,7.33
2018-09-25T07:00:26.763Z,9.93
2018-09-25T07:03:01.201Z,9.83
2018-09-25T07:05:35.637Z,13.43
2018-09-25T07:08:10.199Z,7.20
2018-09-25T07:10:44.716Z,7.60
2018-09-25T07:13:19.437Z,9.40
2018-09-25T07:15:53.994Z,10.43
2018-09-25T07:18:28.434Z,9.97
2018-09-25T07:21:02.995Z,8.47
2018-09-25T07:23:37.433Z,13.63
2018-09-25T07:26:11.874Z,10.53
2018-09-25T07:28:46.557Z,10.93
2018-09-25T07:31:21.111Z,9.03
2018-09-25T07:33:55.552Z,12.70
2018-09-25T07:36:30.231Z,8.80
2018-09-25T07:39:04.673Z,20.97
2018-09-25T07:41:39.496Z,12.67
2018-09-25T07:44:14.714Z,16.87
2018-09-25T07:46:49.247Z,10.33
2018-09-25T07:49:23.967Z,15.00
2018-09-25T07:51:58.545Z,10.07
2018-09-25T07:54:33.528Z,21.60
2018-09-25T07:57:08.152Z,10.27
2018-09-25T07:59:43.666Z,20.67
2018-09-25T08:02:18.121Z,17.03
2018-09-25T08:04:52.908Z,13.30
2018-09-25T08:07:27.589Z,10.50
2018-09-25T08:10:02.142Z,18.53
2018-09-25T08:12:36.583Z,17.57
2018-09-25T08:15:11.141Z,13.63
2018-09-25T08:17:45.943Z,9.13
2018-09-25T08:20:20.385Z,13.73
2018-09-25T08:22:54.944Z,14.17
2018-09-25T08:25:29.741Z,14.40
2018-09-25T08:28:04.281Z,9.93
2018-09-25T08:30:38.984Z,9.80
2018-09-25T08:33:13.301Z,17.90
2018-09-25T08:35:47.741Z,14.90
2018-09-25T08:38:22.558Z,13.77
2018-09-25T08:40:57.218Z,12.33
2018-09-25T08:43:31.656Z,9.77
2018-09-25T08:46:05.977Z,14.67
2018-09-25T08:48:40.656Z,16.27
2018-09-25T08:51:14.977Z,11.17
2018-09-25T08:53:49.539Z,14.80
2018-09-25T08:56:23.979Z,9.27
2018-09-25T08:58:58.776Z,18.53
2018-09-25T09:01:33.453Z,12.13
2018-09-25T09:04:07.895Z,15.10
2018-09-25T09:06:43.058Z,13.33
2018-09-25T09:09:18.453Z,10.03
2018-09-25T09:11:52.898Z,8.30
2018-09-25T09:14:27.332Z,15.13
2018-09-25T09:17:01.771Z,23.37
2018-09-25T09:19:36.427Z,15.50
2018-09-25T09:22:11.136Z,12.27
2018-09-25T09:24:45.693Z,7.40
2018-09-25T09:27:20.849Z,3.80
2018-09-25T09:29:55.289Z,6.37
2018-09-25T09:32:29.662Z,6.57
2018-09-25T09:38:14.510Z,3.70
2018-09-25T09:40:49.294Z,6.83
2018-09-25T09:43:23.847Z,7.20
2018-09-25T09:45:58.887Z,4.10
2018-09-25T09:48:33.329Z,3.20
2018-09-25T09:51:09.179Z,5.00
2018-09-25T09:53:43.805Z,6.07
2018-09-25T09:56:18.352Z,7.13
2018-09-25T09:58:53.728Z,10.80
2018-09-25T10:01:28.501Z,10.57
2018-09-25T10:04:03.081Z,3.27
2018-09-25T10:06:37.647Z,6.03
2018-09-25T10:09:14.529Z,7.33
2018-09-25T10:11:48.920Z,5.57
2018-09-25T10:14:23.399Z,3.80
2018-09-25T10:16:58.162Z,3.87
2018-09-25T10:19:32.601Z,8.03
2018-09-25T10:22:07.162Z,8.57
2018-09-25T10:24:41.721Z,8.67
2018-09-25T10:27:16.457Z,7.83
2018-09-25T10:29:51.798Z,4.47
2018-09-25T10:32:26.238Z,11.63
2018-09-25T10:35:00.919Z,3.23
2018-09-25T10:37:35.356Z,9.67
2018-09-25T10:40:09.796Z,7.60
2018-09-25T10:42:44.357Z,8.20
2018-09-25T10:45:19.196Z,10.97
2018-09-25T10:47:53.953Z,6.27
2018-09-25T10:50:29.573Z,2.53
2018-09-25T10:53:04.154Z,5.70
2018-09-25T10:55:38.479Z,6.57
2018-09-25T11:13:43.446Z,6.87
2018-09-25T11:16:17.169Z,5.80
2018-09-25T11:18:51.059Z,7.90
2018-09-25T11:21:24.844Z,4.93
2018-09-25T11:23:58.792Z,11.37
2018-09-25T11:26:32.485Z,4.20
2018-09-25T11:29:06.155Z,5.27
2018-09-25T11:31:40.036Z,10.27
2018-09-25T11:34:14.015Z,5.87
2018-09-25T11:36:47.913Z,9.37
2018-09-25T11:39:21.670Z,4.33
2018-09-25T11:41:55.720Z,6.33
2018-09-25T11:44:29.693Z,8.53
2018-09-25T11:47:03.439Z,8.63
2018-09-25T11:49:37.184Z,7.47
2018-09-25T11:52:11.010Z,7.43
2018-09-25T11:54:44.876Z,7.93
2018-09-25T11:57:18.795Z,4.13
2018-09-25T11:59:52.712Z,3.63
2018-09-25T12:02:26.449Z,7.60
2018-09-25T12:05:00.342Z,2.97
2018-09-25T12:07:34.211Z,8.50
2018-09-25T12:10:07.999Z,2.20
2018-09-25T12:12:41.795Z,3.20
2018-09-25T12:15:15.656Z,1.23
2018-09-25T12:17:49.375Z,7.17
2018-09-25T12:20:23.508Z,9.90
2018-09-25T12:22:57.211Z,4.47
2018-09-25T12:25:31.083Z,2.90
2018-09-25T12:28:04.813Z,2.53
2018-09-25T12:30:38.724Z,6.07
2018-09-25T12:33:12.576Z,5.00
2018-09-25T12:35:46.459Z,4.13
2018-09-25T12:38:20.189Z,6.03
2018-09-25T12:40:53.903Z,1.93
2018-09-25T12:43:27.672Z,4.37
2018-09-25T12:46:01.661Z,5.33
2018-09-25T12:48:35.330Z,4.77
2018-09-25T12:51:09.124Z,6.90
2018-09-25T12:53:43.041Z,2.30
2018-09-25T12:56:16.970Z,1.10
2018-09-25T12:58:50.879Z,2.70
2018-09-25T13:01:24.603Z,1.80
2018-09-25T13:03:59.117Z,2.70
2018-09-25T13:06:33.039Z,4.17
2018-09-25T13:09:06.988Z,9.27
2018-09-25T13:11:40.830Z,11.43
2018-09-25T13:14:14.676Z,10.63
2018-09-25T13:16:48.408Z,3.90
2018-09-25T13:19:22.335Z,2.10
2018-09-25T13:21:56.128Z,1.23
2018-09-25T13:24:29.989Z,2.03
2018-09-25T13:27:03.740Z,10.20
2018-09-25T13:29:37.527Z,2.10
2018-09-25T13:32:11.492Z,3.90
2018-09-25T13:34:45.386Z,1.97
2018-09-25T13:37:19.177Z,3.80
2018-09-25T13:39:53.116Z,5.00
2018-09-25T13:42:27.084Z,4.30
2018-09-25T13:45:00.771Z,7.43
2018-09-25T13:47:34.583Z,2.63
2018-09-25T13:50:08.411Z,7.67
2018-09-25T13:52:42.381Z,3.63
2018-09-25T13:55:16.138Z,5.73
2018-09-25T13:57:50.079Z,3.17
2018-09-25T14:00:23.873Z,2.00
2018-09-25T14:02:57.726Z,1.43
2018-09-25T14:05:31.703Z,3.80
2018-09-25T14:08:05.449Z,2.03
2018-09-25T14:10:39.330Z,4.00
2018-09-25T14:13:13.222Z,2.77
2018-09-25T14:15:46.979Z,2.00
2018-09-25T14:18:20.953Z,3.90
2018-09-25T14:20:54.693Z,4.50
2018-09-25T14:23:28.668Z,3.83
2018-09-25T14:26:02.651Z,3.57
2018-09-25T14:28:36.548Z,4.23
2018-09-25T14:31:10.486Z,2.70
2018-09-25T14:33:44.248Z,0.50
2018-09-25T14:36:17.942Z,3.53
2018-09-25T14:38:51.993Z,4.47
2018-09-25T14:41:25.829Z,3.10
2018-09-25T14:43:59.734Z,2.20
2018-09-25T14:46:33.618Z,3.03
2018-09-25T14:49:07.325Z,1.73
2018-09-25T14:51:41.046Z,1.90
2018-09-25T14:54:14.822Z,0.83
2018-09-25T14:56:48.700Z,6.33
2018-09-25T14:59:22.419Z,1.10
2018-09-25T15:01:56.219Z,1.53
2018-09-25T15:04:30.086Z,1.03
2018-09-25T15:07:03.956Z,2.87
2018-09-25T15:09:37.760Z,4.80
2018-09-25T15:12:11.796Z,6.00
2018-09-25T15:14:45.723Z,2.00
2018-09-25T15:17:19.732Z,5.00
2018-09-25T15:19:53.499Z,8.83
2018-09-25T15:22:27.372Z,2.03
2018-09-25T15:25:01.363Z,1.57
2018-09-25T15:27:35.257Z,11.80
2018-09-25T15:30:09.124Z,1.00
2018-09-25T15:32:46.132Z,1.00
2018-09-25T15:35:20.814Z,3.37
2018-09-25T15:37:54.570Z,4.63
2018-09-25T15:40:28.314Z,1.17
2018-09-25T15:43:02.927Z,4.83
2018-09-25T15:45:36.828Z,1.07
2018-09-25T15:48:11.018Z,1.63
2018-09-25T15:50:44.833Z,3.73
2018-09-25T15:53:20.561Z,1.30
2018-09-25T15:55:54.476Z,1.80
2018-09-25T15:58:28.275Z,1.40
2018-09-25T16:01:02.229Z,4.80
2018-09-25T16:03:36.176Z,1.20
2018-09-25T16:06:10.174Z,4.80
2018-09-25T16:08:43.915Z,3.33
2018-09-25T16:11:17.869Z,2.13
2018-09-25T16:13:51.891Z,1.37
2018-09-25T16:16:25.804Z,2.73
2018-09-25T16:18:59.669Z,6.23
2018-09-25T16:21:33.402Z,2.83
2018-09-25T16:24:07.171Z,0.63
2018-09-25T16:26:40.818Z,3.13
2018-09-25T16:29:14.482Z,2.07
2018-09-25T16:31:48.297Z,4.43
2018-09-25T16:34:22.161Z,4.87
2018-09-25T16:36:56.140Z,2.10
2018-09-25T16:39:30.098Z,1.17
2018-09-25T16:42:05.205Z,4.20
2018-09-25T16:44:38.965Z,6.67
2018-09-25T16:47:12.801Z,4.10
2018-09-25T16:49:46.676Z,3.80
2018-09-25T16:52:20.417Z,5.60
2018-09-25T16:54:54.165Z,3.63
2018-09-25T16:57:27.920Z,4.23
2018-09-25T17:00:01.781Z,2.60
2018-09-25T17:02:35.751Z,2.97
2018-09-25T17:05:09.484Z,2.97
2018-09-25T17:07:43.464Z,4.90
2018-09-25T17:10:17.470Z,4.53
2018-09-25T17:12:51.242Z,8.03
2018-09-25T17:15:25.026Z,3.20
2018-09-25T17:17:59.013Z,3.30
2018-09-25T17:20:32.972Z,4.83
2018-09-25T17:23:06.895Z,3.80
2018-09-25T17:25:40.598Z,3.67
2018-09-25T17:28:14.441Z,9.98
2018-09-25T17:30:48.555Z,6.20
2018-09-25T17:33:22.350Z,5.23
2018-09-25T17:35:56.091Z,6.70
2018-09-25T17:38:30.004Z,5.58
2018-09-25T17:41:03.712Z,6.47
2018-09-25T17:43:37.682Z,8.60
2018-09-25T17:46:11.464Z,8.48
2018-09-25T17:48:45.263Z,5.75
2018-09-25T17:51:19.106Z,12.03
2018-09-25T17:53:52.792Z,18.65
2018-09-25T17:56:26.695Z,26.52
2018-09-25T17:59:00.309Z,26.20
2018-09-25T18:01:34.105Z,14.43
2018-09-25T18:04:07.828Z,14.25
2018-09-25T18:06:41.613Z,13.72
2018-09-25T18:09:15.361Z,15.05
2018-09-25T18:11:49.241Z,20.27
2018-09-25T18:14:23.160Z,11.15
2018-09-25T18:16:56.844Z,5.28
2018-09-25T18:19:30.779Z,18.65
2018-09-25T18:22:05.340Z,4.70
2018-09-25T18:24:39.100Z,20.68
2018-09-25T18:27:12.842Z,11.93
2018-09-25T18:29:46.706Z,10.88
2018-09-25T18:32:20.622Z,10.93
2018-09-25T18:34:54.587Z,18.02
2018-09-25T18:37:28.537Z,16.70
2018-09-25T18:40:02.492Z,15.85
2018-09-25T18:42:36.252Z,18.80
2018-09-25T18:45:10.252Z,15.80
2018-09-25T18:47:44.111Z,19.55
2018-09-25T18:50:17.987Z,15.88
2018-09-25T18:52:51.830Z,14.58
2018-09-25T18:55:25.476Z,14.78
2018-09-25T18:57:59.423Z,23.62
2018-09-25T19:00:33.160Z,23.32
2018-09-25T19:03:06.957Z,17.10
2018-09-25T19:05:40.699Z,16.75
2018-09-25T19:08:14.376Z,18.98
2018-09-25T19:10:48.326Z,22.42
2018-09-25T19:13:22.029Z,12.82
2018-09-25T19:15:55.949Z,10.20
2018-09-25T19:18:29.963Z,15.32
2018-09-25T19:21:03.738Z,9.68
2018-09-25T19:23:37.464Z,7.95
2018-09-25T19:26:11.431Z,9.08
2018-09-25T19:28:45.299Z,10.32
2018-09-25T19:31:19.518Z,12.73
2018-09-25T19:33:53.468Z,20.35
2018-09-25T19:36:27.249Z,15.88
2018-09-25T19:39:00.999Z,15.32
2018-09-25T19:41:34.838Z,18.62
2018-09-25T19:44:08.758Z,13.38
2018-09-25T19:46:42.575Z,13.90
2018-09-25T19:49:16.240Z,13.03
2018-09-25T19:51:50.157Z,9.05
2018-09-25T19:54:23.929Z,13.70
2018-09-25T19:56:57.806Z,11.90
2018-09-25T19:59:31.904Z,10.70
2018-09-25T20:02:05.620Z,19.12
2018-09-25T20:04:39.363Z,12.15
2018-09-25T20:07:13.280Z,22.22
2018-09-25T20:09:47.228Z,20.12
2018-09-25T20:12:21.183Z,20.23
2018-09-25T20:14:55.136Z,21.10
2018-09-25T20:17:29.043Z,16.10
2018-09-25T20:20:03.079Z,17.98
2018-09-25T20:22:37.274Z,27.30
2018-09-25T20:25:11.078Z,17.32
2018-09-25T20:27:45.013Z,20.12
2018-09-25T20:30:18.813Z,18.80
2018-09-25T20:32:52.759Z,19.90
2018-09-25T20:35:26.664Z,18.50
2018-09-25T20:38:00.655Z,19.45
2018-09-25T20:40:35.029Z,20.10
2018-09-25T20:43:08.978Z,17.35
2018-09-25T20:45:42.844Z,23.07
2018-09-25T20:48:16.789Z,23.20
2018-09-25T20:50:50.611Z,18.95
2018-09-25T20:53:24.508Z,23.38
2018-09-25T20:55:58.349Z,16.00
2018-09-25T20:58:32.208Z,18.07
2018-09-25T21:01:06.131Z,18.95
2018-09-25T21:03:39.991Z,24.70
2018-09-25T21:06:13.967Z,29.90
2018-09-25T21:08:47.867Z,27.10
2018-09-25T21:11:21.716Z,21.17
2018-09-25T21:13:55.707Z,26.23
2018-09-25T21:16:29.632Z,19.87
2018-09-25T21:19:03.686Z,23.67
2018-09-25T21:21:37.458Z,21.75
2018-09-25T21:24:11.154Z,20.40
2018-09-25T21:26:44.877Z,25.27
2018-09-25T21:29:18.827Z,26.33
2018-09-25T21:31:52.709Z,26.42
2018-09-25T21:34:26.659Z,24.92
2018-09-25T21:37:00.398Z,22.93
2018-09-25T21:39:34.383Z,22.32
2018-09-25T21:42:08.223Z,30.70
2018-09-25T21:44:42.057Z,27.73
2018-09-25T21:47:15.953Z,23.70
2018-09-25T21:49:49.682Z,22.40
2018-09-25T21:52:23.596Z,23.62
2018-09-25T21:54:57.328Z,27.27
2018-09-25T21:57:31.284Z,28.17
2018-09-25T22:00:04.862Z,38.90
2018-09-25T22:02:38.560Z,27.07
2018-09-25T22:05:12.415Z,25.20
2018-09-25T22:07:46.213Z,31.37
2018-09-25T22:10:20.161Z,44.30
2018-09-25T22:12:54.137Z,34.85
2018-09-25T22:15:27.842Z,27.35
2018-09-25T22:18:01.782Z,41.25
2018-09-25T22:20:35.492Z,28.15
2018-09-25T22:23:09.472Z,32.80
2018-09-25T22:25:43.407Z,32.98
2018-09-25T22:28:17.180Z,29.70
2018-09-25T22:30:52.851Z,31.68
2018-09-25T22:33:26.566Z,33.45
2018-09-25T22:36:00.344Z,24.67
2018-09-25T22:38:34.077Z,30.80
2018-09-25T22:41:08.088Z,27.32
2018-09-25T22:43:41.983Z,31.17
2018-09-25T22:46:15.748Z,28.42
2018-09-25T22:48:49.546Z,26.48
2018-09-25T22:51:23.323Z,30.40
2018-09-25T22:53:57.195Z,32.80
2018-09-25T22:56:31.060Z,31.82
2018-09-25T22:59:04.853Z,29.65
2018-09-25T23:01:38.614Z,28.75
2018-09-25T23:04:12.497Z,39.05
2018-09-25T23:06:46.264Z,33.20
2018-09-25T23:09:20.056Z,30.72
2018-09-25T23:11:53.783Z,38.08
2018-09-25T23:14:27.651Z,27.37
2018-09-25T23:17:01.575Z,37.25
2018-09-25T23:19:35.323Z,38.60
2018-09-25T23:22:09.119Z,33.67
2018-09-25T23:24:42.864Z,32.25
2018-09-25T23:27:16.650Z,28.60
2018-09-25T23:29:50.607Z,28.15
2018-09-25T23:32:24.526Z,29.45
2018-09-25T23:34:58.326Z,31.35
2018-09-25T23:37:32.083Z,29.48
2018-09-25T23:40:10.857Z,32.67
2018-09-25T23:42:45.449Z,27.80
2018-09-25T23:45:21.217Z,32.25
2018-09-25T23:47:58.384Z,31.77
2018-09-25T23:50:32.204Z,34.43
2018-09-25T23:53:36.275Z,28.98
2018-09-25T23:56:18.350Z,28.15
2018-09-25T23:58:52.238Z,34.43
